sensor_id;sensor_type;location;lat;lon;timestamp;P1;durP1;ratioP1;P2;durP2;ratioP2
70303;SDS011;57712;48.752;11.348;2022-11-04T00:01:25;35.93;;;17.93;;
70303;SDS011;57712;48.752;11.348;2022-11-04T00:03:52;33.72;;;17.45;;
70303;SDS011;57712;48.752;11.348;2022-11-04T00:06:18;33.65;;;17.25;;
70303;SDS011;57712;48.752;11.348;2022-11-04T00:08:52;32.40;;;16.75;;
70303;SDS011;57712;48.752;11.348;2022-11-04T00:11:20;33.58;;;16.77;;
70303;SDS011;57712;48.752;11.348;2022-11-04T00:14:06;31.43;;;16.80;;
70303;SDS011;57712;48.752;11.348;2022-11-04T00:16:33;29.67;;;16.45;;
70303;SDS011;57712;48.752;11.348;2022-11-04T00:19:18;26.77;;;14.93;;
70303;SDS011;57712;48.752;11.348;2022-11-04T00:21:45;29.30;;;15.55;;
70303;SDS011;57712;48.752;11.348;2022-11-04T00:24:30;28.50;;;14.43;;
70303;SDS011;57712;48.752;11.348;2022-11-04T00:27:08;25.37;;;14.60;;
70303;SDS011;57712;48.752;11.348;2022-11-04T00:29:54;28.65;;;14.68;;
70303;SDS011;57712;48.752;11.348;2022-11-04T00:32:21;27.50;;;14.23;;
70303;SDS011;57712;48.752;11.348;2022-11-04T00:35:06;26.33;;;14.68;;
70303;SDS011;57712;48.752;11.348;2022-11-04T00:37:40;27.00;;;14.07;;
70303;SDS011;57712;48.752;11.348;2022-11-04T00:40:09;24.70;;;13.47;;
70303;SDS011;57712;48.752;11.348;2022-11-04T00:42:38;24.13;;;13.20;;
70303;SDS011;57712;48.752;11.348;2022-11-04T00:45:05;25.70;;;13.60;;
70303;SDS011;57712;48.752;11.348;2022-11-04T00:47:32;25.13;;;13.55;;
70303;SDS011;57712;48.752;11.348;2022-11-04T00:49:58;21.70;;;12.38;;
70303;SDS011;57712;48.752;11.348;2022-11-04T00:52:24;22.47;;;12.40;;
70303;SDS011;57712;48.752;11.348;2022-11-04T00:54:51;23.20;;;12.15;;
70303;SDS011;57712;48.752;11.348;2022-11-04T00:57:17;22.83;;;12.35;;
70303;SDS011;57712;48.752;11.348;2022-11-04T00:59:43;23.95;;;12.40;;
70303;SDS011;57712;48.752;11.348;2022-11-04T01:02:10;26.92;;;13.02;;
70303;SDS011;57712;48.752;11.348;2022-11-04T01:04:38;21.10;;;11.47;;
70303;SDS011;57712;48.752;11.348;2022-11-04T01:07:04;23.02;;;12.68;;
70303;SDS011;57712;48.752;11.348;2022-11-04T01:09:30;23.48;;;11.95;;
70303;SDS011;57712;48.752;11.348;2022-11-04T01:11:57;23.20;;;12.05;;
70303;SDS011;57712;48.752;11.348;2022-11-04T01:14:23;24.48;;;12.00;;
70303;SDS011;57712;48.752;11.348;2022-11-04T01:16:49;20.53;;;10.63;;
70303;SDS011;57712;48.752;11.348;2022-11-04T01:19:16;22.65;;;11.88;;
70303;SDS011;57712;48.752;11.348;2022-11-04T01:21:42;22.23;;;10.48;;
70303;SDS011;57712;48.752;11.348;2022-11-04T01:24:09;23.15;;;11.30;;
70303;SDS011;57712;48.752;11.348;2022-11-04T01:26:35;24.10;;;10.95;;
70303;SDS011;57712;48.752;11.348;2022-11-04T01:29:02;23.37;;;10.67;;
70303;SDS011;57712;48.752;11.348;2022-11-04T01:31:29;18.95;;;9.63;;
70303;SDS011;57712;48.752;11.348;2022-11-04T01:33:56;24.55;;;11.15;;
70303;SDS011;57712;48.752;11.348;2022-11-04T01:36:24;19.75;;;9.98;;
70303;SDS011;57712;48.752;11.348;2022-11-04T01:38:51;18.30;;;8.80;;
70303;SDS011;57712;48.752;11.348;2022-11-04T01:41:24;17.10;;;8.83;;
70303;SDS011;57712;48.752;11.348;2022-11-04T01:43:56;17.90;;;7.75;;
70303;SDS011;57712;48.752;11.348;2022-11-04T01:46:49;15.98;;;8.02;;
70303;SDS011;57712;48.752;11.348;2022-11-04T01:51:58;16.08;;;7.80;;
70303;SDS011;57712;48.752;11.348;2022-11-04T01:54:27;16.87;;;7.33;;
70303;SDS011;57712;48.752;11.348;2022-11-04T01:56:54;16.23;;;8.05;;
70303;SDS011;57712;48.752;11.348;2022-11-04T01:59:27;17.00;;;8.15;;
70303;SDS011;57712;48.752;11.348;2022-11-04T02:02:00;16.33;;;7.80;;
70303;SDS011;57712;48.752;11.348;2022-11-04T02:04:27;16.52;;;8.32;;
70303;SDS011;57712;48.752;11.348;2022-11-04T02:06:56;17.60;;;7.13;;
70303;SDS011;57712;48.752;11.348;2022-11-04T02:09:26;16.02;;;7.25;;
70303;SDS011;57712;48.752;11.348;2022-11-04T02:11:55;16.27;;;7.20;;
70303;SDS011;57712;48.752;11.348;2022-11-04T02:14:39;16.58;;;8.00;;
70303;SDS011;57712;48.752;11.348;2022-11-04T02:19:50;15.60;;;6.30;;
70303;SDS011;57712;48.752;11.348;2022-11-04T02:22:30;15.02;;;7.07;;
70303;SDS011;57712;48.752;11.348;2022-11-04T02:33:24;13.63;;;6.30;;
70303;SDS011;57712;48.752;11.348;2022-11-04T02:36:03;13.32;;;6.30;;
70303;SDS011;57712;48.752;11.348;2022-11-04T02:46:48;13.37;;;5.97;;
70303;SDS011;57712;48.752;11.348;2022-11-04T02:49:28;11.82;;;5.65;;
70303;SDS011;57712;48.752;11.348;2022-11-04T02:52:06;11.57;;;5.68;;
70303;SDS011;57712;48.752;11.348;2022-11-04T02:54:38;13.50;;;5.72;;
70303;SDS011;57712;48.752;11.348;2022-11-04T02:57:12;11.95;;;5.68;;
70303;SDS011;57712;48.752;11.348;2022-11-04T02:59:45;10.80;;;5.30;;
70303;SDS011;57712;48.752;11.348;2022-11-04T03:02:18;13.52;;;5.35;;
70303;SDS011;57712;48.752;11.348;2022-11-04T03:04:52;12.00;;;5.55;;
70303;SDS011;57712;48.752;11.348;2022-11-04T03:07:22;10.00;;;4.57;;
70303;SDS011;57712;48.752;11.348;2022-11-04T03:09:52;12.65;;;4.50;;
70303;SDS011;57712;48.752;11.348;2022-11-04T03:12:26;10.13;;;4.60;;
70303;SDS011;57712;48.752;11.348;2022-11-04T03:15:04;11.00;;;4.97;;
70303;SDS011;57712;48.752;11.348;2022-11-04T03:17:38;11.90;;;4.88;;
70303;SDS011;57712;48.752;11.348;2022-11-04T03:20:14;10.52;;;4.40;;
70303;SDS011;57712;48.752;11.348;2022-11-04T03:22:46;9.55;;;3.83;;
70303;SDS011;57712;48.752;11.348;2022-11-04T03:25:12;8.70;;;3.90;;
70303;SDS011;57712;48.752;11.348;2022-11-04T03:27:50;9.35;;;3.30;;
70303;SDS011;57712;48.752;11.348;2022-11-04T03:30:25;7.78;;;3.53;;
70303;SDS011;57712;48.752;11.348;2022-11-04T03:33:04;8.13;;;3.38;;
70303;SDS011;57712;48.752;11.348;2022-11-04T03:35:50;8.57;;;2.80;;
70303;SDS011;57712;48.752;11.348;2022-11-04T03:38:16;9.07;;;3.70;;
70303;SDS011;57712;48.752;11.348;2022-11-04T03:40:42;8.20;;;2.97;;
70303;SDS011;57712;48.752;11.348;2022-11-04T03:43:20;9.65;;;3.50;;
70303;SDS011;57712;48.752;11.348;2022-11-04T03:45:50;7.70;;;3.15;;
70303;SDS011;57712;48.752;11.348;2022-11-04T03:48:17;9.30;;;3.20;;
70303;SDS011;57712;48.752;11.348;2022-11-04T03:50:44;9.03;;;3.33;;
70303;SDS011;57712;48.752;11.348;2022-11-04T03:53:16;6.80;;;2.78;;
70303;SDS011;57712;48.752;11.348;2022-11-04T04:01:25;7.10;;;2.30;;
70303;SDS011;57712;48.752;11.348;2022-11-04T04:03:57;6.73;;;2.57;;
70303;SDS011;57712;48.752;11.348;2022-11-04T04:06:34;5.78;;;1.92;;
70303;SDS011;57712;48.752;11.348;2022-11-04T04:09:04;5.38;;;1.98;;
70303;SDS011;57712;48.752;11.348;2022-11-04T04:14:36;6.85;;;1.85;;
70303;SDS011;57712;48.752;11.348;2022-11-04T04:17:08;7.37;;;1.73;;
70303;SDS011;57712;48.752;11.348;2022-11-04T04:19:41;5.45;;;1.67;;
70303;SDS011;57712;48.752;11.348;2022-11-04T04:22:14;4.40;;;1.40;;
70303;SDS011;57712;48.752;11.348;2022-11-04T04:24:46;5.45;;;1.65;;
70303;SDS011;57712;48.752;11.348;2022-11-04T04:27:32;4.40;;;1.42;;
70303;SDS011;57712;48.752;11.348;2022-11-04T04:30:02;5.20;;;1.30;;
70303;SDS011;57712;48.752;11.348;2022-11-04T04:32:36;6.20;;;1.25;;
70303;SDS011;57712;48.752;11.348;2022-11-04T04:35:07;4.90;;;1.30;;
70303;SDS011;57712;48.752;11.348;2022-11-04T04:37:53;4.50;;;1.30;;
70303;SDS011;57712;48.752;11.348;2022-11-04T04:40:44;5.32;;;1.33;;
70303;SDS011;57712;48.752;11.348;2022-11-04T04:43:35;5.27;;;1.13;;
70303;SDS011;57712;48.752;11.348;2022-11-04T04:46:25;4.30;;;1.30;;
70303;SDS011;57712;48.752;11.348;2022-11-04T04:48:54;3.95;;;0.90;;
70303;SDS011;57712;48.752;11.348;2022-11-04T04:51:20;4.25;;;1.20;;
70303;SDS011;57712;48.752;11.348;2022-11-04T04:53:47;5.50;;;1.33;;
70303;SDS011;57712;48.752;11.348;2022-11-04T04:56:14;4.60;;;1.20;;
70303;SDS011;57712;48.752;11.348;2022-11-04T04:58:40;4.75;;;1.10;;
70303;SDS011;57712;48.752;11.348;2022-11-04T05:01:06;4.65;;;1.25;;
70303;SDS011;57712;48.752;11.348;2022-11-04T05:03:34;5.65;;;1.70;;
70303;SDS011;57712;48.752;11.348;2022-11-04T05:06:00;5.15;;;1.58;;
70303;SDS011;57712;48.752;11.348;2022-11-04T05:08:26;5.27;;;1.70;;
70303;SDS011;57712;48.752;11.348;2022-11-04T05:10:53;4.82;;;1.67;;
70303;SDS011;57712;48.752;11.348;2022-11-04T05:13:19;5.25;;;1.88;;
70303;SDS011;57712;48.752;11.348;2022-11-04T05:15:51;5.72;;;2.13;;
70303;SDS011;57712;48.752;11.348;2022-11-04T05:18:18;6.43;;;1.85;;
70303;SDS011;57712;48.752;11.348;2022-11-04T05:20:45;6.53;;;2.37;;
70303;SDS011;57712;48.752;11.348;2022-11-04T05:23:11;6.32;;;2.67;;
70303;SDS011;57712;48.752;11.348;2022-11-04T05:25:39;9.40;;;2.55;;
70303;SDS011;57712;48.752;11.348;2022-11-04T05:28:07;5.90;;;2.72;;
70303;SDS011;57712;48.752;11.348;2022-11-04T05:30:34;6.22;;;2.35;;
70303;SDS011;57712;48.752;11.348;2022-11-04T05:33:01;6.23;;;2.30;;
70303;SDS011;57712;48.752;11.348;2022-11-04T05:35:30;6.55;;;2.20;;
70303;SDS011;57712;48.752;11.348;2022-11-04T05:37:57;5.78;;;2.22;;
70303;SDS011;57712;48.752;11.348;2022-11-04T05:40:23;6.03;;;2.22;;
70303;SDS011;57712;48.752;11.348;2022-11-04T05:42:50;5.85;;;2.30;;
70303;SDS011;57712;48.752;11.348;2022-11-04T05:45:16;7.43;;;2.83;;
70303;SDS011;57712;48.752;11.348;2022-11-04T05:47:43;7.55;;;3.53;;
70303;SDS011;57712;48.752;11.348;2022-11-04T05:50:09;8.98;;;4.78;;
70303;SDS011;57712;48.752;11.348;2022-11-04T05:52:35;9.18;;;4.50;;
70303;SDS011;57712;48.752;11.348;2022-11-04T05:55:02;10.77;;;5.25;;
70303;SDS011;57712;48.752;11.348;2022-11-04T05:57:28;9.53;;;4.80;;
70303;SDS011;57712;48.752;11.348;2022-11-04T05:59:55;10.15;;;4.95;;
70303;SDS011;57712;48.752;11.348;2022-11-04T06:02:21;8.60;;;4.70;;
70303;SDS011;57712;48.752;11.348;2022-11-04T06:04:47;8.88;;;4.45;;
70303;SDS011;57712;48.752;11.348;2022-11-04T06:07:14;8.27;;;4.13;;
70303;SDS011;57712;48.752;11.348;2022-11-04T06:09:40;9.00;;;4.32;;
70303;SDS011;57712;48.752;11.348;2022-11-04T06:12:08;8.18;;;4.00;;
70303;SDS011;57712;48.752;11.348;2022-11-04T06:14:35;7.50;;;3.90;;
70303;SDS011;57712;48.752;11.348;2022-11-04T06:17:02;8.35;;;3.97;;
70303;SDS011;57712;48.752;11.348;2022-11-04T06:19:29;8.07;;;3.47;;
70303;SDS011;57712;48.752;11.348;2022-11-04T06:21:55;6.97;;;3.17;;
70303;SDS011;57712;48.752;11.348;2022-11-04T06:24:21;9.45;;;3.35;;
70303;SDS011;57712;48.752;11.348;2022-11-04T06:26:48;5.93;;;2.40;;
70303;SDS011;57712;48.752;11.348;2022-11-04T06:29:14;7.43;;;2.80;;
70303;SDS011;57712;48.752;11.348;2022-11-04T06:31:40;5.38;;;2.42;;
70303;SDS011;57712;48.752;11.348;2022-11-04T06:34:07;6.18;;;2.63;;
70303;SDS011;57712;48.752;11.348;2022-11-04T06:36:33;6.07;;;1.90;;
70303;SDS011;57712;48.752;11.348;2022-11-04T06:38:59;5.37;;;2.13;;
70303;SDS011;57712;48.752;11.348;2022-11-04T06:41:30;5.43;;;1.70;;
70303;SDS011;57712;48.752;11.348;2022-11-04T06:43:56;5.60;;;1.60;;
70303;SDS011;57712;48.752;11.348;2022-11-04T06:48:52;4.55;;;1.23;;
70303;SDS011;57712;48.752;11.348;2022-11-04T06:51:20;5.17;;;1.57;;
70303;SDS011;57712;48.752;11.348;2022-11-04T06:53:46;4.65;;;1.40;;
70303;SDS011;57712;48.752;11.348;2022-11-04T06:56:12;5.68;;;1.50;;
70303;SDS011;57712;48.752;11.348;2022-11-04T06:58:39;5.13;;;1.65;;
70303;SDS011;57712;48.752;11.348;2022-11-04T07:01:06;4.82;;;1.25;;
70303;SDS011;57712;48.752;11.348;2022-11-04T07:03:39;6.10;;;1.90;;
70303;SDS011;57712;48.752;11.348;2022-11-04T07:06:06;6.18;;;2.30;;
70303;SDS011;57712;48.752;11.348;2022-11-04T07:08:33;6.78;;;2.72;;
70303;SDS011;57712;48.752;11.348;2022-11-04T07:11:00;6.50;;;1.77;;
70303;SDS011;57712;48.752;11.348;2022-11-04T07:13:27;7.18;;;2.50;;
70303;SDS011;57712;48.752;11.348;2022-11-04T07:15:54;7.03;;;2.60;;
70303;SDS011;57712;48.752;11.348;2022-11-04T07:18:20;6.65;;;2.05;;
70303;SDS011;57712;48.752;11.348;2022-11-04T07:20:46;6.35;;;2.70;;
70303;SDS011;57712;48.752;11.348;2022-11-04T07:23:13;6.35;;;2.20;;
70303;SDS011;57712;48.752;11.348;2022-11-04T07:25:39;9.77;;;4.00;;
70303;SDS011;57712;48.752;11.348;2022-11-04T07:28:06;7.20;;;3.00;;
70303;SDS011;57712;48.752;11.348;2022-11-04T07:30:33;5.32;;;2.28;;
70303;SDS011;57712;48.752;11.348;2022-11-04T07:32:59;7.75;;;2.92;;
70303;SDS011;57712;48.752;11.348;2022-11-04T07:35:25;9.88;;;3.10;;
70303;SDS011;57712;48.752;11.348;2022-11-04T07:37:51;7.78;;;4.00;;
70303;SDS011;57712;48.752;11.348;2022-11-04T07:40:20;7.57;;;3.87;;
70303;SDS011;57712;48.752;11.348;2022-11-04T07:42:46;9.95;;;3.40;;
70303;SDS011;57712;48.752;11.348;2022-11-04T07:45:13;10.43;;;4.60;;
70303;SDS011;57712;48.752;11.348;2022-11-04T07:47:39;10.75;;;3.90;;
70303;SDS011;57712;48.752;11.348;2022-11-04T07:50:05;7.88;;;3.00;;
70303;SDS011;57712;48.752;11.348;2022-11-04T07:52:36;5.93;;;2.50;;
70303;SDS011;57712;48.752;11.348;2022-11-04T07:55:03;5.88;;;2.00;;
70303;SDS011;57712;48.752;11.348;2022-11-04T07:57:29;5.32;;;1.88;;
70303;SDS011;57712;48.752;11.348;2022-11-04T07:59:56;6.80;;;2.45;;
70303;SDS011;57712;48.752;11.348;2022-11-04T08:02:22;5.90;;;2.17;;
70303;SDS011;57712;48.752;11.348;2022-11-04T08:04:53;5.77;;;1.43;;
70303;SDS011;57712;48.752;11.348;2022-11-04T08:07:20;7.55;;;1.88;;
70303;SDS011;57712;48.752;11.348;2022-11-04T08:09:46;11.25;;;2.97;;
70303;SDS011;57712;48.752;11.348;2022-11-04T08:12:13;4.80;;;1.30;;
70303;SDS011;57712;48.752;11.348;2022-11-04T08:14:39;8.25;;;1.50;;
70303;SDS011;57712;48.752;11.348;2022-11-04T08:17:05;6.83;;;2.20;;
70303;SDS011;57712;48.752;11.348;2022-11-04T08:19:32;7.00;;;1.92;;
70303;SDS011;57712;48.752;11.348;2022-11-04T08:21:58;6.63;;;1.70;;
70303;SDS011;57712;48.752;11.348;2022-11-04T08:24:24;5.18;;;1.55;;
70303;SDS011;57712;48.752;11.348;2022-11-04T08:26:51;7.72;;;1.65;;
70303;SDS011;57712;48.752;11.348;2022-11-04T08:29:17;8.00;;;2.00;;
70303;SDS011;57712;48.752;11.348;2022-11-04T08:31:44;7.32;;;2.17;;
70303;SDS011;57712;48.752;11.348;2022-11-04T08:34:10;5.93;;;1.60;;
70303;SDS011;57712;48.752;11.348;2022-11-04T08:36:37;6.13;;;1.70;;
70303;SDS011;57712;48.752;11.348;2022-11-04T08:39:06;8.93;;;1.70;;
70303;SDS011;57712;48.752;11.348;2022-11-04T08:41:36;7.83;;;2.00;;
70303;SDS011;57712;48.752;11.348;2022-11-04T08:44:06;8.38;;;2.05;;
70303;SDS011;57712;48.752;11.348;2022-11-04T08:46:34;5.63;;;2.25;;
70303;SDS011;57712;48.752;11.348;2022-11-04T08:49:03;9.68;;;2.50;;
70303;SDS011;57712;48.752;11.348;2022-11-04T08:51:37;6.88;;;2.00;;
70303;SDS011;57712;48.752;11.348;2022-11-04T08:54:07;7.47;;;2.30;;
70303;SDS011;57712;48.752;11.348;2022-11-04T08:56:34;8.93;;;2.00;;
70303;SDS011;57712;48.752;11.348;2022-11-04T08:59:02;7.30;;;1.77;;
70303;SDS011;57712;48.752;11.348;2022-11-04T09:01:31;7.18;;;1.65;;
70303;SDS011;57712;48.752;11.348;2022-11-04T09:04:01;5.82;;;1.80;;
70303;SDS011;57712;48.752;11.348;2022-11-04T09:06:29;7.93;;;2.17;;
70303;SDS011;57712;48.752;11.348;2022-11-04T09:09:01;10.75;;;2.15;;
70303;SDS011;57712;48.752;11.348;2022-11-04T09:11:33;6.55;;;2.00;;
70303;SDS011;57712;48.752;11.348;2022-11-04T09:14:04;6.60;;;1.83;;
70303;SDS011;57712;48.752;11.348;2022-11-04T09:16:32;9.63;;;1.80;;
70303;SDS011;57712;48.752;11.348;2022-11-04T09:18:59;6.53;;;1.70;;
70303;SDS011;57712;48.752;11.348;2022-11-04T09:21:27;7.18;;;2.58;;
70303;SDS011;57712;48.752;11.348;2022-11-04T09:23:54;5.90;;;1.50;;
70303;SDS011;57712;48.752;11.348;2022-11-04T09:26:21;5.35;;;1.50;;
70303;SDS011;57712;48.752;11.348;2022-11-04T09:28:53;8.57;;;1.30;;
70303;SDS011;57712;48.752;11.348;2022-11-04T09:31:23;8.30;;;1.90;;
70303;SDS011;57712;48.752;11.348;2022-11-04T09:33:52;5.97;;;1.33;;
70303;SDS011;57712;48.752;11.348;2022-11-04T09:36:19;5.50;;;1.08;;
70303;SDS011;57712;48.752;11.348;2022-11-04T09:38:46;6.18;;;1.42;;
70303;SDS011;57712;48.752;11.348;2022-11-04T09:46:39;7.38;;;1.55;;
70303;SDS011;57712;48.752;11.348;2022-11-04T09:49:07;6.10;;;1.30;;
70303;SDS011;57712;48.752;11.348;2022-11-04T09:51:37;9.23;;;1.63;;
70303;SDS011;57712;48.752;11.348;2022-11-04T09:54:24;4.90;;;1.10;;
70303;SDS011;57712;48.752;11.348;2022-11-04T09:56:58;5.97;;;0.97;;
70303;SDS011;57712;48.752;11.348;2022-11-04T09:59:27;5.25;;;0.70;;
70303;SDS011;57712;48.752;11.348;2022-11-04T10:10:19;5.33;;;0.60;;
70303;SDS011;57712;48.752;11.348;2022-11-04T10:12:52;8.40;;;0.98;;
70303;SDS011;57712;48.752;11.348;2022-11-04T10:21:57;6.05;;;1.10;;
70303;SDS011;57712;48.752;11.348;2022-11-04T10:27:24;8.48;;;1.73;;
70303;SDS011;57712;48.752;11.348;2022-11-04T10:30:01;4.72;;;0.93;;
70303;SDS011;57712;48.752;11.348;2022-11-04T10:35:44;6.43;;;0.80;;
70303;SDS011;57712;48.752;11.348;2022-11-04T10:40:59;6.70;;;1.58;;
70303;SDS011;57712;48.752;11.348;2022-11-04T10:43:36;7.22;;;1.30;;
70303;SDS011;57712;48.752;11.348;2022-11-04T10:48:58;6.18;;;1.13;;
70303;SDS011;57712;48.752;11.348;2022-11-04T10:51:30;6.47;;;1.40;;
70303;SDS011;57712;48.752;11.348;2022-11-04T10:53:57;6.15;;;2.00;;
70303;SDS011;57712;48.752;11.348;2022-11-04T10:56:34;7.25;;;1.52;;
70303;SDS011;57712;48.752;11.348;2022-11-04T10:59:14;7.70;;;1.58;;
70303;SDS011;57712;48.752;11.348;2022-11-04T11:01:49;5.38;;;1.52;;
70303;SDS011;57712;48.752;11.348;2022-11-04T11:04:25;9.83;;;3.43;;
70303;SDS011;57712;48.752;11.348;2022-11-04T11:06:54;7.97;;;1.98;;
70303;SDS011;57712;48.752;11.348;2022-11-04T11:09:25;6.07;;;1.77;;
70303;SDS011;57712;48.752;11.348;2022-11-04T11:11:59;7.03;;;1.25;;
70303;SDS011;57712;48.752;11.348;2022-11-04T11:14:39;6.75;;;1.48;;
70303;SDS011;57712;48.752;11.348;2022-11-04T11:27:38;4.68;;;1.33;;
70303;SDS011;57712;48.752;11.348;2022-11-04T11:30:05;8.70;;;1.87;;
70303;SDS011;57712;48.752;11.348;2022-11-04T11:32:44;5.20;;;1.40;;
70303;SDS011;57712;48.752;11.348;2022-11-04T11:35:15;6.35;;;1.27;;
70303;SDS011;57712;48.752;11.348;2022-11-04T11:37:44;6.30;;;1.50;;
70303;SDS011;57712;48.752;11.348;2022-11-04T11:40:22;5.90;;;1.65;;
70303;SDS011;57712;48.752;11.348;2022-11-04T11:42:54;5.33;;;1.60;;
70303;SDS011;57712;48.752;11.348;2022-11-04T11:45:21;6.60;;;1.70;;
70303;SDS011;57712;48.752;11.348;2022-11-04T11:47:48;5.63;;;1.60;;
70303;SDS011;57712;48.752;11.348;2022-11-04T11:50:24;5.60;;;1.30;;
70303;SDS011;57712;48.752;11.348;2022-11-04T11:53:10;6.35;;;1.50;;
70303;SDS011;57712;48.752;11.348;2022-11-04T11:55:52;5.13;;;1.33;;
70303;SDS011;57712;48.752;11.348;2022-11-04T11:58:27;5.22;;;1.52;;
70303;SDS011;57712;48.752;11.348;2022-11-04T12:01:26;5.93;;;1.40;;
70303;SDS011;57712;48.752;11.348;2022-11-04T12:03:57;5.68;;;1.48;;
70303;SDS011;57712;48.752;11.348;2022-11-04T12:06:47;8.35;;;1.63;;
70303;SDS011;57712;48.752;11.348;2022-11-04T12:12:36;5.68;;;1.63;;
70303;SDS011;57712;48.752;11.348;2022-11-04T12:24:07;4.97;;;1.40;;
70303;SDS011;57712;48.752;11.348;2022-11-04T12:26:39;4.85;;;1.17;;
70303;SDS011;57712;48.752;11.348;2022-11-04T12:29:34;4.55;;;0.98;;
70303;SDS011;57712;48.752;11.348;2022-11-04T12:32:26;6.15;;;1.60;;
70303;SDS011;57712;48.752;11.348;2022-11-04T12:37:40;5.63;;;1.70;;
70303;SDS011;57712;48.752;11.348;2022-11-04T12:40:19;5.68;;;1.60;;
70303;SDS011;57712;48.752;11.348;2022-11-04T12:42:56;7.13;;;3.00;;
70303;SDS011;57712;48.752;11.348;2022-11-04T12:48:41;5.85;;;1.50;;
70303;SDS011;57712;48.752;11.348;2022-11-04T12:51:25;6.27;;;2.00;;
70303;SDS011;57712;48.752;11.348;2022-11-04T12:54:19;5.72;;;1.35;;
70303;SDS011;57712;48.752;11.348;2022-11-04T12:56:59;4.90;;;1.70;;
70303;SDS011;57712;48.752;11.348;2022-11-04T13:02:29;5.65;;;1.48;;
70303;SDS011;57712;48.752;11.348;2022-11-04T13:07:53;5.57;;;1.02;;
70303;SDS011;57712;48.752;11.348;2022-11-04T13:13:20;8.02;;;2.10;;
70303;SDS011;57712;48.752;11.348;2022-11-04T13:15:53;5.40;;;1.80;;
70303;SDS011;57712;48.752;11.348;2022-11-04T13:18:24;7.80;;;2.40;;
70303;SDS011;57712;48.752;11.348;2022-11-04T13:23:31;7.05;;;1.30;;
70303;SDS011;57712;48.752;11.348;2022-11-04T13:26:04;6.47;;;1.85;;
70303;SDS011;57712;48.752;11.348;2022-11-04T13:28:36;5.50;;;1.90;;
70303;SDS011;57712;48.752;11.348;2022-11-04T13:34:16;6.72;;;1.48;;
70303;SDS011;57712;48.752;11.348;2022-11-04T13:39:29;6.47;;;1.88;;
70303;SDS011;57712;48.752;11.348;2022-11-04T13:45:52;14.83;;;4.50;;
70303;SDS011;57712;48.752;11.348;2022-11-04T13:48:22;9.07;;;2.75;;
70303;SDS011;57712;48.752;11.348;2022-11-04T13:51:02;9.20;;;3.08;;
70303;SDS011;57712;48.752;11.348;2022-11-04T13:53:44;5.97;;;1.40;;
70303;SDS011;57712;48.752;11.348;2022-11-04T13:56:31;10.27;;;3.17;;
70303;SDS011;57712;48.752;11.348;2022-11-04T14:01:44;7.38;;;1.98;;
70303;SDS011;57712;48.752;11.348;2022-11-04T14:06:57;5.68;;;1.90;;
70303;SDS011;57712;48.752;11.348;2022-11-04T14:09:32;7.70;;;1.83;;
70303;SDS011;57712;48.752;11.348;2022-11-04T14:14:39;7.15;;;1.30;;
70303;SDS011;57712;48.752;11.348;2022-11-04T14:19:59;5.50;;;1.60;;
70303;SDS011;57712;48.752;11.348;2022-11-04T14:28:25;6.93;;;1.80;;
70303;SDS011;57712;48.752;11.348;2022-11-04T14:39:02;5.97;;;1.80;;
70303;SDS011;57712;48.752;11.348;2022-11-04T14:44:12;6.10;;;2.05;;
70303;SDS011;57712;48.752;11.348;2022-11-04T14:46:53;9.00;;;2.42;;
70303;SDS011;57712;48.752;11.348;2022-11-04T14:49:36;7.47;;;2.35;;
70303;SDS011;57712;48.752;11.348;2022-11-04T14:52:15;8.43;;;3.03;;
70303;SDS011;57712;48.752;11.348;2022-11-04T14:54:42;9.73;;;6.35;;
70303;SDS011;57712;48.752;11.348;2022-11-04T14:57:16;12.23;;;4.70;;
70303;SDS011;57712;48.752;11.348;2022-11-04T14:59:45;7.88;;;3.63;;
70303;SDS011;57712;48.752;11.348;2022-11-04T15:02:13;7.07;;;2.95;;
70303;SDS011;57712;48.752;11.348;2022-11-04T15:04:47;7.63;;;1.80;;
70303;SDS011;57712;48.752;11.348;2022-11-04T15:07:25;6.18;;;2.00;;
70303;SDS011;57712;48.752;11.348;2022-11-04T15:10:02;4.88;;;1.63;;
70303;SDS011;57712;48.752;11.348;2022-11-04T15:12:46;5.50;;;2.00;;
70303;SDS011;57712;48.752;11.348;2022-11-04T15:18:01;5.53;;;1.73;;
70303;SDS011;57712;48.752;11.348;2022-11-04T15:20:55;11.73;;;1.60;;
70303;SDS011;57712;48.752;11.348;2022-11-04T15:23:27;4.80;;;1.80;;
70303;SDS011;57712;48.752;11.348;2022-11-04T15:25:56;4.93;;;1.30;;
70303;SDS011;57712;48.752;11.348;2022-11-04T15:28:28;6.35;;;1.45;;
70303;SDS011;57712;48.752;11.348;2022-11-04T15:31:01;6.73;;;1.90;;
70303;SDS011;57712;48.752;11.348;2022-11-04T15:33:44;6.88;;;2.08;;
70303;SDS011;57712;48.752;11.348;2022-11-04T15:36:21;6.00;;;1.70;;
70303;SDS011;57712;48.752;11.348;2022-11-04T15:38:51;5.07;;;2.10;;
70303;SDS011;57712;48.752;11.348;2022-11-04T15:41:23;6.15;;;2.20;;
70303;SDS011;57712;48.752;11.348;2022-11-04T15:44:16;5.90;;;2.23;;
70303;SDS011;57712;48.752;11.348;2022-11-04T15:46:46;5.82;;;2.40;;
70303;SDS011;57712;48.752;11.348;2022-11-04T15:49:35;8.07;;;3.22;;
70303;SDS011;57712;48.752;11.348;2022-11-04T15:52:04;9.10;;;4.53;;
70303;SDS011;57712;48.752;11.348;2022-11-04T15:54:40;9.32;;;3.90;;
70303;SDS011;57712;48.752;11.348;2022-11-04T15:57:16;11.40;;;5.50;;
70303;SDS011;57712;48.752;11.348;2022-11-04T16:00:05;10.05;;;4.40;;
70303;SDS011;57712;48.752;11.348;2022-11-04T16:02:34;10.40;;;4.25;;
70303;SDS011;57712;48.752;11.348;2022-11-04T16:07:43;7.65;;;3.50;;
70303;SDS011;57712;48.752;11.348;2022-11-04T16:10:35;8.07;;;4.17;;
70303;SDS011;57712;48.752;11.348;2022-11-04T16:15:49;9.48;;;4.75;;
70303;SDS011;57712;48.752;11.348;2022-11-04T16:21:08;6.47;;;2.65;;
70303;SDS011;57712;48.752;11.348;2022-11-04T16:23:43;8.67;;;2.60;;
70303;SDS011;57712;48.752;11.348;2022-11-04T16:26:12;6.03;;;2.70;;
70303;SDS011;57712;48.752;11.348;2022-11-04T16:28:39;7.78;;;3.50;;
70303;SDS011;57712;48.752;11.348;2022-11-04T16:33:53;8.20;;;3.63;;
70303;SDS011;57712;48.752;11.348;2022-11-04T16:36:20;10.00;;;5.40;;
70303;SDS011;57712;48.752;11.348;2022-11-04T16:38:53;12.43;;;6.45;;
70303;SDS011;57712;48.752;11.348;2022-11-04T16:41:23;23.15;;;12.68;;
70303;SDS011;57712;48.752;11.348;2022-11-04T16:43:51;17.98;;;10.23;;
70303;SDS011;57712;48.752;11.348;2022-11-04T16:46:18;11.48;;;5.72;;
70303;SDS011;57712;48.752;11.348;2022-11-04T16:48:45;6.40;;;3.47;;
70303;SDS011;57712;48.752;11.348;2022-11-04T16:51:16;7.55;;;3.50;;
70303;SDS011;57712;48.752;11.348;2022-11-04T16:53:47;6.75;;;3.53;;
70303;SDS011;57712;48.752;11.348;2022-11-04T16:56:17;6.20;;;3.15;;
70303;SDS011;57712;48.752;11.348;2022-11-04T16:58:46;8.35;;;3.10;;
70303;SDS011;57712;48.752;11.348;2022-11-04T17:01:12;7.03;;;3.10;;
70303;SDS011;57712;48.752;11.348;2022-11-04T17:03:41;8.00;;;3.70;;
70303;SDS011;57712;48.752;11.348;2022-11-04T17:06:11;8.50;;;4.32;;
70303;SDS011;57712;48.752;11.348;2022-11-04T17:08:38;10.00;;;5.60;;
70303;SDS011;57712;48.752;11.348;2022-11-04T17:11:06;9.68;;;5.82;;
70303;SDS011;57712;48.752;11.348;2022-11-04T17:13:33;9.33;;;5.57;;
70303;SDS011;57712;48.752;11.348;2022-11-04T17:16:02;9.55;;;5.75;;
70303;SDS011;57712;48.752;11.348;2022-11-04T17:18:30;11.40;;;5.85;;
70303;SDS011;57712;48.752;11.348;2022-11-04T17:20:57;9.55;;;5.80;;
70303;SDS011;57712;48.752;11.348;2022-11-04T17:23:25;10.73;;;6.38;;
70303;SDS011;57712;48.752;11.348;2022-11-04T17:25:51;12.90;;;6.83;;
70303;SDS011;57712;48.752;11.348;2022-11-04T17:28:18;12.60;;;7.45;;